Davison Army Air Field
KDAA : now visible

Airfield :











YOU CAN JOIN US ON...

 
LOGIN :

Register | Disclaimer

   EN    FR    IT 

 









Legend :    VFR   Marginal VFR   IFR   Intensive IFR   Very Intensive IFR
Visi :
Ceiling :
>= 8 km
>= 3000ft
5 to 8 km
1000 to 3000 ft
1500m to 5 km
500 to 1000 ft
800 to 1500m
200 to 500 ft
< 800m
< 200 ft
Symbols :   Thunderstorms  Fog  Heavy snow  Heavy precipitations  Wind > 20 kt






- Airport Elevation : 73 ft


KDAA - Davison Army Air Field

CURRENT METAR :
  • 141255Z AUTO 17003KT 10SM CLR 15/05 A3002 RMK AO2 SLP168 T01510047 $

EXPIRED METARs :
  • 141155Z AUTO 00000KT 10SM CLR 08/04 A3003 RMK AO2 SLP172 T00780035 10078 20041 51009 $
  • 141055Z AUTO 00000KT 10SM CLR 04/02 A3003 RMK AO2 SLP172 T00440021 $
  • 140955Z AUTO 00000KT 10SM CLR 04/02 A3002 RMK AO2 SLP169 T00430020 $
  • 140855Z AUTO 00000KT 10SM CLR 05/02 A3001 RMK AO2 SLP165 T00490021 53003 $

Expired Forecast.
KZDC FIR / North America



MET'MAP, your aeronautical weather chart ! - Copyright ORBIFLY December 2007 - Disclaimer

ORBIFLY MET'MAP TEAM :

Programming & Development : Alexandra Zaïnal
Original concept : Baudouin d'Aumeries
Technical & hardware support : Manuel Goepfert
Assistance : Marc-Olivier Méhu




SOURCES & CREDITS :

   NOAA       Earth
Advisory